23:49
Airports
Links
Donate
Help keep this website running!
PayPal
Bitcoin
METAR
PHJH 192245Z 05013G24KT 15SM FEW020 SCT030 27/18 A3007
Current Weather Conditions at PHJH
VFR 22:45:00 19-10-17
Altimeter:30.07 hg
Temp:27.0°c 81°f
Dew point:18.0°c 64°f
Wind:13 knots, 15 mph, 7 m/s, from 50°
Visibility:15.0 statute miles
3000(SCT) Scattered
2000(FEW) A few
Past METAR reports
VFR 21:45:00 19-10-17
Altimeter:30.09 hg
Temp:28.0°c 82°f
Dew point:19.0°c 66°f
Wind:14 knots, 16.1 mph, 7 m/s, from 30°
Visibility:15.0 statute miles
3000(FEW) A few
PHJH 192145Z 03014G24KT 15SM FEW030 28/19 A3009
VFR 20:45:00 19-10-17
Altimeter:30.10 hg
Temp:27.0°c 81°f
Dew point:18.0°c 64°f
Wind:18 knots, 20.7 mph, 9 m/s, from 30°
Visibility:15.0 statute miles
3000(FEW) A few
PHJH 192045Z 03018G27KT 15SM FEW030 27/18 A3010
VFR 19:45:00 19-10-17
Altimeter:30.11 hg
Temp:27.0°c 81°f
Dew point:18.0°c 64°f
Wind:13 knots, 15 mph, 7 m/s, from 30°
Visibility:15.0 statute miles
3000(SCT) Scattered
PHJH 191945Z 03013G31KT 15SM SCT030 27/18 A3011
VFR 18:45:00 19-10-17
Altimeter:30.10 hg
Temp:26.0°c 79°f
Dew point:18.0°c 64°f
Wind:20 knots, 23 mph, 10 m/s, from 20°
Visibility:15.0 statute miles
3000(FEW) A few
PHJH 191845Z 02020G26KT 15SM FEW030 26/18 A3010
TAF
PHJH 192320Z 2000/2024 05018G28KT P6SM VCSH SCT030 SCT045 FM200700 05014G22KT P6SM VCSH FEW020 SCT030 SCT045 FM202000 05018G28KT P6SM VCSH FEW020 SCT030 SCT045 AMD NOT SKED 2004/2016
Forecast at PHJH
00:00 20-10-17 to 07:00 20-10-17
VCSH
Wind:18 Knots from 50°
Visibility:6.21 statute miles
3000SCT Scattered
4500SCT Scattered
FM 07:00 20-10-17 to 20:00 20-10-17
VCSH
Wind:14 Knots from 50°
Visibility:6.21 statute miles
2000FEW A few
3000SCT Scattered
4500SCT Scattered
FM 20:00 20-10-17 to 00:00 21-10-17
VCSH
Wind:18 Knots from 50°
Visibility:6.21 statute miles
2000FEW A few
3000SCT Scattered
4500SCT Scattered